Aviation Digital Data Service (ADDS)

Output produced by METARs form (0430 UTC 22 September 2017)
found at http://www.aviationweather.gov/adds/metars/
 
OLBA 220400Z 19008KT 9999 FEW026 26/21 Q1014 NOSIG
TAF OLBA 220400Z 2206/2312 23010G20KT 8000 /// BKN030 
     BECMG 2220/2222 19010KT 160V220 
     BECMG 2308/2310 23012KT 
     TEMPO 2215/2306 5000 BR